createdAt,value
2022-09-07T00:01:41.990Z,100894.34
2022-09-07T00:06:43.539Z,100862.25
2022-09-07T00:11:45.206Z,100873.47
2022-09-07T00:16:46.722Z,100864.63
2022-09-07T00:21:48.320Z,100873.81
2022-09-07T00:26:49.910Z,100871.63
2022-09-07T00:31:51.504Z,100887.94
2022-09-07T00:36:53.062Z,100875.50
2022-09-07T00:41:54.570Z,100897.59
2022-09-07T00:46:56.350Z,100906.38
2022-09-07T00:52:03.142Z,100902.44
2022-09-07T00:57:05.494Z,100895.06
2022-09-07T01:02:08.148Z,100854.56
2022-09-07T01:07:09.906Z,100807.16
2022-09-07T01:12:11.448Z,100802.19
2022-09-07T01:17:41.969Z,100814.16
2022-09-07T01:23:04.388Z,100834.50
2022-09-07T01:28:22.716Z,100795.78
2022-09-07T01:33:32.513Z,100766.00
2022-09-07T01:38:36.784Z,100768.78
2022-09-07T01:44:03.383Z,100729.94
2022-09-07T01:49:17.574Z,100729.50
2022-09-07T01:54:27.624Z,100717.38
2022-09-07T01:59:45.935Z,100719.50
2022-09-07T02:04:55.480Z,100704.50
2022-09-07T02:10:10.692Z,100715.56
2022-09-07T02:15:20.966Z,100705.88
2022-09-07T02:20:31.451Z,100740.75
2022-09-07T02:25:45.730Z,100739.69
2022-09-07T02:30:47.479Z,100723.59
2022-09-07T02:35:49.117Z,100724.59
2022-09-07T02:40:55.174Z,100711.16
2022-09-07T02:46:15.328Z,100727.69
2022-09-07T02:51:22.692Z,100720.72
2022-09-07T02:56:46.065Z,100720.06
2022-09-07T03:01:59.619Z,100718.50
2022-09-07T03:07:35.779Z,100717.72
2022-09-07T03:12:46.063Z,100713.56
2022-09-07T03:17:48.354Z,100717.38
2022-09-07T03:22:51.665Z,100714.44
2022-09-07T03:27:53.278Z,100707.25
2022-09-07T03:32:54.761Z,100708.84
2022-09-07T03:37:56.259Z,100690.72
2022-09-07T03:42:57.686Z,100692.41
2022-09-07T03:47:59.101Z,100704.97
2022-09-07T03:53:00.589Z,100698.69
2022-09-07T03:58:02.014Z,100692.06
2022-09-07T04:03:03.520Z,100705.13
2022-09-07T04:08:05.036Z,100699.25
2022-09-07T04:13:07.296Z,100685.50
2022-09-07T04:18:08.853Z,100700.34
2022-09-07T04:23:10.402Z,100705.28
2022-09-07T04:28:11.859Z,100689.13
2022-09-07T04:33:14.486Z,100710.28
2022-09-07T04:38:16.582Z,100714.16
2022-09-07T04:43:18.095Z,100711.16
2022-09-07T04:48:19.535Z,100715.94
2022-09-07T04:53:20.965Z,100715.91
2022-09-07T04:58:22.438Z,100713.31
2022-09-07T05:03:23.897Z,100693.59
2022-09-07T05:08:25.335Z,100703.78
2022-09-07T05:13:28.972Z,100709.16
2022-09-07T05:18:30.480Z,100703.06
2022-09-07T05:23:31.929Z,100710.91
2022-09-07T05:28:34.835Z,100724.88
2022-09-07T05:38:59.193Z,100723.06
2022-09-07T05:49:22.172Z,100736.75
2022-09-07T05:54:23.722Z,100743.84
2022-09-07T05:59:25.190Z,100743.72
2022-09-07T06:04:26.615Z,100737.44
2022-09-07T06:09:30.515Z,100738.38
2022-09-07T06:14:33.558Z,100726.81
2022-09-07T06:19:35.007Z,100724.91
2022-09-07T06:24:36.432Z,100731.81
2022-09-07T06:29:37.883Z,100735.00
2022-09-07T06:34:39.316Z,100731.25
2022-09-07T06:39:40.875Z,100736.88
2022-09-07T06:44:42.396Z,100743.44
2022-09-07T06:49:43.828Z,100753.75
2022-09-07T06:55:00.990Z,100744.06
2022-09-07T07:00:03.378Z,100746.59
2022-09-07T07:05:05.151Z,100746.91
2022-09-07T07:10:06.993Z,100733.78
2022-09-07T07:15:09.014Z,100770.84
2022-09-07T07:20:10.662Z,100741.81
2022-09-07T07:25:12.115Z,100786.00
2022-09-07T07:30:17.729Z,100797.72
2022-09-07T07:35:19.210Z,100789.75
2022-09-07T07:40:23.551Z,100822.22
2022-09-07T07:50:58.574Z,100822.88
2022-09-07T07:56:00.868Z,100834.09
2022-09-07T08:01:05.297Z,100829.63
2022-09-07T08:06:09.041Z,100823.88
2022-09-07T08:11:13.064Z,100831.75
2022-09-07T08:16:15.097Z,100829.91
2022-09-07T08:21:16.881Z,100834.38
2022-09-07T08:26:18.233Z,100838.09
2022-09-07T08:31:19.630Z,100847.41
2022-09-07T08:36:21.529Z,100849.53
2022-09-07T08:41:31.942Z,100848.75
2022-09-07T08:46:38.613Z,100828.88
2022-09-07T08:51:47.461Z,100829.81
2022-09-07T09:06:10.831Z,100821.72
2022-09-07T09:07:52.609Z,100839.84
2022-09-07T09:13:09.454Z,100839.78
2022-09-07T09:18:35.089Z,100844.91
2022-09-07T09:23:44.608Z,100814.84
2022-09-07T09:28:45.969Z,100837.09
2022-09-07T09:34:05.706Z,100842.16
2022-09-07T09:39:37.106Z,100846.38
2022-09-07T09:44:39.463Z,100838.22
2022-09-07T09:49:40.959Z,100857.59
2022-09-07T09:54:44.657Z,100866.72
2022-09-07T10:00:05.547Z,100868.06
2022-09-07T10:05:30.243Z,100867.53
2022-09-07T10:10:32.153Z,100866.88
2022-09-07T10:15:40.522Z,100858.38
2022-09-07T10:20:42.552Z,100861.81
2022-09-07T10:25:47.468Z,100864.31
2022-09-07T10:31:00.975Z,100868.97
2022-09-07T10:36:23.658Z,100869.94
2022-09-07T10:41:46.864Z,100873.84
2022-09-07T10:47:09.304Z,100879.34
2022-09-07T10:52:38.722Z,100873.19
2022-09-07T10:57:58.031Z,100866.47
2022-09-07T11:03:40.891Z,100857.06
2022-09-07T11:09:21.068Z,100850.28
2022-09-07T11:14:25.411Z,100856.75
2022-09-07T11:19:37.882Z,100849.53
2022-09-07T11:30:27.266Z,100840.16
2022-09-07T11:35:44.720Z,100831.19
2022-09-07T11:40:58.515Z,100843.31
2022-09-07T11:46:24.872Z,100846.72
2022-09-07T11:51:53.638Z,100833.91
2022-09-07T11:57:36.959Z,100837.66
2022-09-07T12:03:02.780Z,100828.34
2022-09-07T12:08:17.778Z,100824.59
2022-09-07T12:13:42.395Z,100811.66
2022-09-07T12:18:43.695Z,100813.72
2022-09-07T12:23:46.359Z,100799.31
2022-09-07T12:28:50.721Z,100807.66
2022-09-07T12:34:38.263Z,100798.63
2022-09-07T12:39:43.802Z,100794.00
2022-09-07T12:44:45.685Z,100782.94
2022-09-07T12:50:10.126Z,100785.31
2022-09-07T12:55:28.121Z,100794.97
2022-09-07T13:00:50.877Z,100783.28
2022-09-07T13:06:07.324Z,100789.97
2022-09-07T13:11:20.767Z,100779.16
2022-09-07T13:22:30.164Z,100755.97
2022-09-07T13:27:43.518Z,100760.59
2022-09-07T13:38:13.842Z,100755.75
2022-09-07T13:43:19.634Z,100745.78
2022-09-07T13:48:36.001Z,100749.88
2022-09-07T13:53:55.938Z,100735.75
2022-09-07T13:58:57.433Z,100743.09
2022-09-07T14:04:06.508Z,100722.47
2022-09-07T14:09:22.199Z,100724.91
2022-09-07T14:14:26.718Z,100734.19
2022-09-07T14:19:39.620Z,100717.75
2022-09-07T14:24:54.708Z,100728.69
2022-09-07T14:29:56.086Z,100728.75
2022-09-07T14:34:58.157Z,100716.97
2022-09-07T14:40:00.723Z,100714.75
2022-09-07T14:45:20.904Z,100718.44
2022-09-07T14:50:34.731Z,100722.00
2022-09-07T14:55:42.468Z,100708.72
2022-09-07T15:00:46.290Z,100714.91
2022-09-07T15:05:48.796Z,100705.94
2022-09-07T15:16:34.999Z,100701.22
2022-09-07T15:21:39.753Z,100688.38
2022-09-07T15:32:09.322Z,100703.41
2022-09-07T15:47:53.809Z,100696.00
2022-09-07T15:52:55.393Z,100662.09
2022-09-07T15:58:10.568Z,100673.56
2022-09-07T16:03:12.512Z,100688.94
2022-09-07T16:13:35.925Z,100674.50
2022-09-07T16:18:39.113Z,100674.59
2022-09-07T16:23:44.492Z,100653.13
2022-09-07T16:28:48.634Z,100656.16
2022-09-07T16:33:50.459Z,100646.41
2022-09-07T16:39:01.630Z,100652.38
2022-09-07T16:44:03.241Z,100645.31
2022-09-07T16:49:06.950Z,100644.03
2022-09-07T16:54:11.667Z,100666.63
2022-09-07T16:59:20.037Z,100645.66
2022-09-07T17:04:21.551Z,100655.56
2022-09-07T17:09:26.644Z,100649.69
2022-09-07T17:14:28.661Z,100646.66
2022-09-07T17:19:30.462Z,100632.66
2022-09-07T17:24:32.554Z,100648.56
2022-09-07T17:29:37.029Z,100644.41
2022-09-07T17:34:38.853Z,100644.66
2022-09-07T17:39:40.256Z,100641.59
2022-09-07T17:44:41.835Z,100642.69
2022-09-07T17:49:43.262Z,100635.03
2022-09-07T17:54:44.643Z,100620.22
2022-09-07T18:05:07.753Z,100631.41
2022-09-07T18:10:09.467Z,100618.88
2022-09-07T18:15:11.054Z,100626.13
2022-09-07T18:20:12.443Z,100622.28
2022-09-07T18:25:13.878Z,100623.59
2022-09-07T18:30:15.789Z,100625.28
2022-09-07T18:35:17.219Z,100615.66
2022-09-07T18:40:21.568Z,100613.81
2022-09-07T18:45:30.449Z,100607.91
2022-09-07T18:50:32.687Z,100609.50
2022-09-07T18:55:34.169Z,100629.66
2022-09-07T19:00:35.705Z,100626.84
2022-09-07T19:05:53.238Z,100618.25
2022-09-07T19:10:54.832Z,100585.38
2022-09-07T19:16:06.380Z,100619.69
2022-09-07T19:21:13.504Z,100618.94
2022-09-07T19:26:17.618Z,100622.56
2022-09-07T19:31:19.465Z,100616.28
2022-09-07T19:36:21.121Z,100620.47
2022-09-07T19:41:22.923Z,100622.47
2022-09-07T19:46:25.118Z,100613.00
2022-09-07T19:51:26.580Z,100604.16
2022-09-07T19:56:28.095Z,100613.31
2022-09-07T20:01:29.707Z,100607.53
2022-09-07T20:06:32.755Z,100611.88
2022-09-07T20:11:35.368Z,100606.53
2022-09-07T20:16:38.445Z,100589.19
2022-09-07T20:21:40.007Z,100584.50
2022-09-07T20:26:41.621Z,100579.09
2022-09-07T20:31:43.947Z,100580.53
2022-09-07T20:36:45.336Z,100576.47
2022-09-07T20:41:47.273Z,100572.25
2022-09-07T20:46:48.799Z,100553.81
2022-09-07T20:51:50.599Z,100566.34
2022-09-07T20:56:51.931Z,100557.16
2022-09-07T21:01:53.326Z,100560.50
2022-09-07T21:06:54.703Z,100559.34
2022-09-07T21:11:57.225Z,100556.19
2022-09-07T21:16:58.687Z,100559.31
2022-09-07T21:22:00.039Z,100553.69
2022-09-07T21:27:01.441Z,100552.72
2022-09-07T21:32:03.186Z,100551.81
2022-09-07T21:37:04.542Z,100532.28
2022-09-07T21:42:05.995Z,100543.16
2022-09-07T21:47:07.441Z,100525.84
2022-09-07T21:52:08.836Z,100532.06
2022-09-07T21:57:10.667Z,100527.72
2022-09-07T22:02:12.149Z,100533.25
2022-09-07T22:07:13.561Z,100537.09
2022-09-07T22:12:14.925Z,100540.50
2022-09-07T22:17:16.977Z,100527.66
2022-09-07T22:22:18.405Z,100522.06
2022-09-07T22:27:19.776Z,100503.03
2022-09-07T22:32:21.151Z,100516.34
2022-09-07T22:37:22.631Z,100502.84
2022-09-07T22:42:24.509Z,100502.97
2022-09-07T22:47:25.995Z,100495.91
2022-09-07T22:52:27.359Z,100482.34
2022-09-07T22:57:28.726Z,100497.38
2022-09-07T23:02:30.166Z,100503.28
2022-09-07T23:07:31.494Z,100503.31
2022-09-07T23:12:33.026Z,100488.47
2022-09-07T23:17:34.367Z,100472.19
2022-09-07T23:22:35.943Z,100468.22
2022-09-07T23:27:37.321Z,100447.38
2022-09-07T23:32:38.687Z,100460.97
2022-09-07T23:37:40.045Z,100454.06
2022-09-07T23:42:41.385Z,100425.44
2022-09-07T23:47:42.727Z,100433.81
2022-09-07T23:52:44.195Z,100423.97
2022-09-07T23:57:45.519Z,100416.09
